sensor_id;sensor_type;location;lat;lon;timestamp;temperature;humidity
33827;DHT22;20128;45.582;5.298;2023-07-28T00:01:32;26.70;56.10
33827;DHT22;20128;45.582;5.298;2023-07-28T00:03:57;26.60;56.30
33827;DHT22;20128;45.582;5.298;2023-07-28T00:06:23;26.60;56.50
33827;DHT22;20128;45.582;5.298;2023-07-28T00:08:49;26.60;56.70
33827;DHT22;20128;45.582;5.298;2023-07-28T00:11:15;26.50;56.70
33827;DHT22;20128;45.582;5.298;2023-07-28T00:13:42;26.50;57.00
33827;DHT22;20128;45.582;5.298;2023-07-28T00:16:09;26.50;57.30
33827;DHT22;20128;45.582;5.298;2023-07-28T00:18:34;26.40;57.20
33827;DHT22;20128;45.582;5.298;2023-07-28T00:21:00;26.50;57.30
33827;DHT22;20128;45.582;5.298;2023-07-28T00:23:26;26.40;57.50
33827;DHT22;20128;45.582;5.298;2023-07-28T00:25:52;26.40;57.50
33827;DHT22;20128;45.582;5.298;2023-07-28T00:28:17;26.30;57.70
33827;DHT22;20128;45.582;5.298;2023-07-28T00:30:43;26.30;57.80
33827;DHT22;20128;45.582;5.298;2023-07-28T00:33:09;26.40;57.80
33827;DHT22;20128;45.582;5.298;2023-07-28T00:35:34;26.30;57.80
33827;DHT22;20128;45.582;5.298;2023-07-28T00:38:00;26.30;57.90
33827;DHT22;20128;45.582;5.298;2023-07-28T00:40:25;26.40;58.00
33827;DHT22;20128;45.582;5.298;2023-07-28T00:42:51;26.40;58.10
33827;DHT22;20128;45.582;5.298;2023-07-28T00:45:17;26.30;58.20
33827;DHT22;20128;45.582;5.298;2023-07-28T00:47:43;26.30;58.50
33827;DHT22;20128;45.582;5.298;2023-07-28T00:50:09;26.30;58.30
33827;DHT22;20128;45.582;5.298;2023-07-28T00:52:36;26.30;58.60
33827;DHT22;20128;45.582;5.298;2023-07-28T00:55:02;26.30;58.80
33827;DHT22;20128;45.582;5.298;2023-07-28T00:57:28;26.30;58.90
33827;DHT22;20128;45.582;5.298;2023-07-28T00:59:53;26.30;59.40
33827;DHT22;20128;45.582;5.298;2023-07-28T01:02:20;26.20;59.80
33827;DHT22;20128;45.582;5.298;2023-07-28T01:04:46;26.20;60.10
33827;DHT22;20128;45.582;5.298;2023-07-28T01:10:08;26.10;61.00
33827;DHT22;20128;45.582;5.298;2023-07-28T01:12:35;26.10;61.60
33827;DHT22;20128;45.582;5.298;2023-07-28T01:15:01;26.00;61.70
33827;DHT22;20128;45.582;5.298;2023-07-28T01:17:27;26.00;61.90
33827;DHT22;20128;45.582;5.298;2023-07-28T01:19:53;26.00;62.00
33827;DHT22;20128;45.582;5.298;2023-07-28T01:25:32;25.90;62.10
33827;DHT22;20128;45.582;5.298;2023-07-28T01:28:00;25.90;62.20
33827;DHT22;20128;45.582;5.298;2023-07-28T01:30:27;25.90;62.70
33827;DHT22;20128;45.582;5.298;2023-07-28T01:32:56;25.90;62.50
33827;DHT22;20128;45.582;5.298;2023-07-28T01:35:23;26.00;62.50
33827;DHT22;20128;45.582;5.298;2023-07-28T01:37:49;25.90;62.70
33827;DHT22;20128;45.582;5.298;2023-07-28T01:40:20;25.90;62.70
33827;DHT22;20128;45.582;5.298;2023-07-28T01:42:46;25.90;63.00
33827;DHT22;20128;45.582;5.298;2023-07-28T01:45:12;26.00;63.20
33827;DHT22;20128;45.582;5.298;2023-07-28T01:47:37;25.90;63.50
33827;DHT22;20128;45.582;5.298;2023-07-28T01:50:03;25.90;63.80
33827;DHT22;20128;45.582;5.298;2023-07-28T01:52:29;25.90;64.10
33827;DHT22;20128;45.582;5.298;2023-07-28T01:54:54;25.90;64.00
33827;DHT22;20128;45.582;5.298;2023-07-28T01:57:20;25.90;64.60
33827;DHT22;20128;45.582;5.298;2023-07-28T01:59:46;25.90;64.90
33827;DHT22;20128;45.582;5.298;2023-07-28T02:02:11;25.80;64.90
33827;DHT22;20128;45.582;5.298;2023-07-28T02:04:37;25.70;65.50
33827;DHT22;20128;45.582;5.298;2023-07-28T02:07:03;25.70;65.70
33827;DHT22;20128;45.582;5.298;2023-07-28T02:09:28;25.70;66.00
33827;DHT22;20128;45.582;5.298;2023-07-28T02:11:54;25.70;66.20
33827;DHT22;20128;45.582;5.298;2023-07-28T02:14:19;25.70;66.30
33827;DHT22;20128;45.582;5.298;2023-07-28T02:16:45;25.60;66.20
33827;DHT22;20128;45.582;5.298;2023-07-28T02:19:11;25.60;66.90
33827;DHT22;20128;45.582;5.298;2023-07-28T02:21:36;25.60;67.20
33827;DHT22;20128;45.582;5.298;2023-07-28T02:24:02;25.60;67.40
33827;DHT22;20128;45.582;5.298;2023-07-28T02:26:28;25.60;67.80
33827;DHT22;20128;45.582;5.298;2023-07-28T02:28:53;25.60;68.20
33827;DHT22;20128;45.582;5.298;2023-07-28T02:31:19;25.40;69.00
33827;DHT22;20128;45.582;5.298;2023-07-28T02:33:45;25.30;69.60
33827;DHT22;20128;45.582;5.298;2023-07-28T02:36:10;25.40;69.70
33827;DHT22;20128;45.582;5.298;2023-07-28T02:38:36;25.40;69.70
33827;DHT22;20128;45.582;5.298;2023-07-28T02:41:02;25.40;70.10
33827;DHT22;20128;45.582;5.298;2023-07-28T02:43:29;25.30;69.80
33827;DHT22;20128;45.582;5.298;2023-07-28T02:45:56;25.30;70.30
33827;DHT22;20128;45.582;5.298;2023-07-28T02:48:22;25.40;71.30
33827;DHT22;20128;45.582;5.298;2023-07-28T02:50:50;25.10;71.90
33827;DHT22;20128;45.582;5.298;2023-07-28T02:53:16;25.10;72.40
33827;DHT22;20128;45.582;5.298;2023-07-28T02:55:46;25.10;72.60
33827;DHT22;20128;45.582;5.298;2023-07-28T02:58:13;25.20;72.10
33827;DHT22;20128;45.582;5.298;2023-07-28T03:00:40;25.10;72.30
33827;DHT22;20128;45.582;5.298;2023-07-28T03:03:07;25.20;72.70
33827;DHT22;20128;45.582;5.298;2023-07-28T03:05:32;25.20;72.80
33827;DHT22;20128;45.582;5.298;2023-07-28T03:07:58;25.20;73.20
33827;DHT22;20128;45.582;5.298;2023-07-28T03:10:25;25.30;72.50
33827;DHT22;20128;45.582;5.298;2023-07-28T03:12:50;25.20;72.70
33827;DHT22;20128;45.582;5.298;2023-07-28T03:15:16;25.10;73.50
33827;DHT22;20128;45.582;5.298;2023-07-28T03:17:42;25.10;73.30
33827;DHT22;20128;45.582;5.298;2023-07-28T03:20:08;25.10;73.40
33827;DHT22;20128;45.582;5.298;2023-07-28T03:22:33;25.10;73.70
33827;DHT22;20128;45.582;5.298;2023-07-28T03:24:59;25.10;73.50
33827;DHT22;20128;45.582;5.298;2023-07-28T03:27:25;25.10;73.70
33827;DHT22;20128;45.582;5.298;2023-07-28T03:29:51;25.10;73.70
33827;DHT22;20128;45.582;5.298;2023-07-28T03:32:16;25.10;74.00
33827;DHT22;20128;45.582;5.298;2023-07-28T03:34:42;25.20;74.10
33827;DHT22;20128;45.582;5.298;2023-07-28T03:37:08;25.10;73.90
33827;DHT22;20128;45.582;5.298;2023-07-28T03:39:34;25.10;74.10
33827;DHT22;20128;45.582;5.298;2023-07-28T03:42:00;25.00;74.30
33827;DHT22;20128;45.582;5.298;2023-07-28T03:44:26;25.10;74.40
33827;DHT22;20128;45.582;5.298;2023-07-28T03:46:51;25.00;74.40
33827;DHT22;20128;45.582;5.298;2023-07-28T03:49:17;25.00;74.30
33827;DHT22;20128;45.582;5.298;2023-07-28T03:51:43;25.10;74.30
33827;DHT22;20128;45.582;5.298;2023-07-28T03:54:08;25.10;74.60
33827;DHT22;20128;45.582;5.298;2023-07-28T03:56:34;25.00;74.60
33827;DHT22;20128;45.582;5.298;2023-07-28T03:59:00;25.00;74.40
33827;DHT22;20128;45.582;5.298;2023-07-28T04:01:25;25.00;74.60
33827;DHT22;20128;45.582;5.298;2023-07-28T04:03:51;24.90;74.80
33827;DHT22;20128;45.582;5.298;2023-07-28T04:06:17;25.00;74.40
33827;DHT22;20128;45.582;5.298;2023-07-28T04:08:43;25.00;74.40
33827;DHT22;20128;45.582;5.298;2023-07-28T04:11:08;25.00;74.60
33827;DHT22;20128;45.582;5.298;2023-07-28T04:13:35;25.00;74.40
33827;DHT22;20128;45.582;5.298;2023-07-28T04:16:01;25.10;73.90
33827;DHT22;20128;45.582;5.298;2023-07-28T04:18:26;25.10;73.70
33827;DHT22;20128;45.582;5.298;2023-07-28T04:20:52;25.10;73.60
33827;DHT22;20128;45.582;5.298;2023-07-28T04:23:18;25.10;73.50
33827;DHT22;20128;45.582;5.298;2023-07-28T04:25:43;25.10;73.70
33827;DHT22;20128;45.582;5.298;2023-07-28T04:28:09;25.10;73.50
33827;DHT22;20128;45.582;5.298;2023-07-28T04:30:35;25.10;74.00
33827;DHT22;20128;45.582;5.298;2023-07-28T04:33:00;25.10;74.10
33827;DHT22;20128;45.582;5.298;2023-07-28T04:35:26;25.10;74.00
33827;DHT22;20128;45.582;5.298;2023-07-28T04:37:52;25.10;73.80
33827;DHT22;20128;45.582;5.298;2023-07-28T04:40:19;25.10;73.60
33827;DHT22;20128;45.582;5.298;2023-07-28T04:42:44;25.10;74.00
33827;DHT22;20128;45.582;5.298;2023-07-28T04:45:10;25.10;74.20
33827;DHT22;20128;45.582;5.298;2023-07-28T04:47:36;25.00;73.70
33827;DHT22;20128;45.582;5.298;2023-07-28T04:50:01;25.10;73.60
33827;DHT22;20128;45.582;5.298;2023-07-28T04:52:27;25.10;73.50
33827;DHT22;20128;45.582;5.298;2023-07-28T04:54:53;25.10;73.80
33827;DHT22;20128;45.582;5.298;2023-07-28T04:57:19;25.10;73.50
33827;DHT22;20128;45.582;5.298;2023-07-28T04:59:44;25.20;73.90
33827;DHT22;20128;45.582;5.298;2023-07-28T05:02:10;25.10;74.10
33827;DHT22;20128;45.582;5.298;2023-07-28T05:04:36;25.10;73.90
33827;DHT22;20128;45.582;5.298;2023-07-28T05:07:03;25.00;74.10
33827;DHT22;20128;45.582;5.298;2023-07-28T05:09:28;24.90;74.40
33827;DHT22;20128;45.582;5.298;2023-07-28T05:11:54;24.90;75.00
33827;DHT22;20128;45.582;5.298;2023-07-28T05:14:20;24.90;75.30
33827;DHT22;20128;45.582;5.298;2023-07-28T05:16:46;24.90;75.50
33827;DHT22;20128;45.582;5.298;2023-07-28T05:19:12;24.90;75.40
33827;DHT22;20128;45.582;5.298;2023-07-28T05:21:38;24.90;76.10
33827;DHT22;20128;45.582;5.298;2023-07-28T05:24:04;24.80;75.80
33827;DHT22;20128;45.582;5.298;2023-07-28T05:26:30;24.70;76.20
33827;DHT22;20128;45.582;5.298;2023-07-28T05:28:55;24.80;76.20
33827;DHT22;20128;45.582;5.298;2023-07-28T05:31:21;24.70;76.20
33827;DHT22;20128;45.582;5.298;2023-07-28T05:33:47;24.70;76.20
33827;DHT22;20128;45.582;5.298;2023-07-28T05:36:12;24.70;76.30
33827;DHT22;20128;45.582;5.298;2023-07-28T05:38:38;24.70;76.40
33827;DHT22;20128;45.582;5.298;2023-07-28T05:41:04;24.70;76.30
33827;DHT22;20128;45.582;5.298;2023-07-28T05:43:30;24.80;76.10
33827;DHT22;20128;45.582;5.298;2023-07-28T05:45:57;24.80;75.80
33827;DHT22;20128;45.582;5.298;2023-07-28T05:48:23;24.80;75.90
33827;DHT22;20128;45.582;5.298;2023-07-28T05:50:48;24.80;75.60
33827;DHT22;20128;45.582;5.298;2023-07-28T05:53:16;24.80;75.50
33827;DHT22;20128;45.582;5.298;2023-07-28T05:55:42;24.90;75.30
33827;DHT22;20128;45.582;5.298;2023-07-28T05:58:07;24.90;75.20
33827;DHT22;20128;45.582;5.298;2023-07-28T06:00:33;24.90;75.10
33827;DHT22;20128;45.582;5.298;2023-07-28T06:02:58;24.90;75.00
33827;DHT22;20128;45.582;5.298;2023-07-28T06:05:24;24.90;74.80
33827;DHT22;20128;45.582;5.298;2023-07-28T06:07:50;24.90;74.70
33827;DHT22;20128;45.582;5.298;2023-07-28T06:10:16;25.00;74.70
33827;DHT22;20128;45.582;5.298;2023-07-28T06:12:41;25.00;75.00
33827;DHT22;20128;45.582;5.298;2023-07-28T06:15:07;25.00;74.40
33827;DHT22;20128;45.582;5.298;2023-07-28T06:17:33;25.10;74.10
33827;DHT22;20128;45.582;5.298;2023-07-28T06:19:59;25.20;73.80
33827;DHT22;20128;45.582;5.298;2023-07-28T06:22:24;25.30;73.40
33827;DHT22;20128;45.582;5.298;2023-07-28T06:24:50;25.30;73.20
33827;DHT22;20128;45.582;5.298;2023-07-28T06:27:16;25.40;72.90
33827;DHT22;20128;45.582;5.298;2023-07-28T06:29:41;25.40;72.70
33827;DHT22;20128;45.582;5.298;2023-07-28T06:32:07;25.50;72.50
33827;DHT22;20128;45.582;5.298;2023-07-28T06:34:33;25.60;72.20
33827;DHT22;20128;45.582;5.298;2023-07-28T06:36:59;25.60;72.00
33827;DHT22;20128;45.582;5.298;2023-07-28T06:39:24;25.70;71.70
33827;DHT22;20128;45.582;5.298;2023-07-28T06:41:50;25.60;71.50
33827;DHT22;20128;45.582;5.298;2023-07-28T06:44:16;25.60;71.50
33827;DHT22;20128;45.582;5.298;2023-07-28T06:46:42;25.60;71.30
33827;DHT22;20128;45.582;5.298;2023-07-28T06:49:07;25.70;71.00
33827;DHT22;20128;45.582;5.298;2023-07-28T06:51:33;25.80;70.80
33827;DHT22;20128;45.582;5.298;2023-07-28T06:53:59;25.90;70.50
33827;DHT22;20128;45.582;5.298;2023-07-28T06:56:24;25.90;70.30
33827;DHT22;20128;45.582;5.298;2023-07-28T06:58:50;25.90;70.30
33827;DHT22;20128;45.582;5.298;2023-07-28T07:01:16;26.00;70.10
33827;DHT22;20128;45.582;5.298;2023-07-28T07:03:43;26.00;70.00
33827;DHT22;20128;45.582;5.298;2023-07-28T07:06:09;26.00;69.80
33827;DHT22;20128;45.582;5.298;2023-07-28T07:08:35;26.00;69.90
33827;DHT22;20128;45.582;5.298;2023-07-28T07:11:00;26.00;70.20
33827;DHT22;20128;45.582;5.298;2023-07-28T07:13:26;26.10;70.20
33827;DHT22;20128;45.582;5.298;2023-07-28T07:15:52;26.20;70.00
33827;DHT22;20128;45.582;5.298;2023-07-28T07:18:17;26.20;69.60
33827;DHT22;20128;45.582;5.298;2023-07-28T07:20:43;26.30;69.60
33827;DHT22;20128;45.582;5.298;2023-07-28T07:23:08;26.30;69.30
33827;DHT22;20128;45.582;5.298;2023-07-28T07:25:34;26.30;69.20
33827;DHT22;20128;45.582;5.298;2023-07-28T07:28:00;26.30;69.00
33827;DHT22;20128;45.582;5.298;2023-07-28T07:30:25;26.30;69.00
33827;DHT22;20128;45.582;5.298;2023-07-28T07:32:51;26.40;69.40
33827;DHT22;20128;45.582;5.298;2023-07-28T07:35:16;26.40;68.90
33827;DHT22;20128;45.582;5.298;2023-07-28T07:37:42;26.40;68.70
33827;DHT22;20128;45.582;5.298;2023-07-28T07:40:09;26.60;68.90
33827;DHT22;20128;45.582;5.298;2023-07-28T07:42:47;26.60;68.30
33827;DHT22;20128;45.582;5.298;2023-07-28T07:45:13;26.60;68.00
33827;DHT22;20128;45.582;5.298;2023-07-28T07:47:40;26.60;68.20
33827;DHT22;20128;45.582;5.298;2023-07-28T07:50:09;26.70;67.90
33827;DHT22;20128;45.582;5.298;2023-07-28T07:52:36;26.80;67.80
33827;DHT22;20128;45.582;5.298;2023-07-28T07:55:02;26.80;67.70
33827;DHT22;20128;45.582;5.298;2023-07-28T07:57:29;26.80;67.20
33827;DHT22;20128;45.582;5.298;2023-07-28T07:59:54;26.80;67.20
33827;DHT22;20128;45.582;5.298;2023-07-28T08:02:20;26.90;67.30
33827;DHT22;20128;45.582;5.298;2023-07-28T08:04:46;27.00;66.50
33827;DHT22;20128;45.582;5.298;2023-07-28T08:07:11;27.00;66.50
33827;DHT22;20128;45.582;5.298;2023-07-28T08:09:37;27.10;66.10
33827;DHT22;20128;45.582;5.298;2023-07-28T08:12:03;27.20;66.10
33827;DHT22;20128;45.582;5.298;2023-07-28T08:14:29;27.30;65.70
33827;DHT22;20128;45.582;5.298;2023-07-28T08:16:54;27.40;65.80
33827;DHT22;20128;45.582;5.298;2023-07-28T08:19:20;27.50;65.30
33827;DHT22;20128;45.582;5.298;2023-07-28T08:21:46;27.60;65.20
33827;DHT22;20128;45.582;5.298;2023-07-28T08:24:12;27.70;64.70
33827;DHT22;20128;45.582;5.298;2023-07-28T08:26:37;27.70;64.40
33827;DHT22;20128;45.582;5.298;2023-07-28T08:29:03;27.80;63.90
33827;DHT22;20128;45.582;5.298;2023-07-28T08:31:30;27.80;63.40
33827;DHT22;20128;45.582;5.298;2023-07-28T08:33:55;27.80;63.40
33827;DHT22;20128;45.582;5.298;2023-07-28T08:36:21;27.90;63.20
33827;DHT22;20128;45.582;5.298;2023-07-28T08:38:47;28.00;62.60
33827;DHT22;20128;45.582;5.298;2023-07-28T08:41:13;28.10;62.70
33827;DHT22;20128;45.582;5.298;2023-07-28T08:43:39;28.10;62.20
33827;DHT22;20128;45.582;5.298;2023-07-28T08:46:05;28.10;62.20
33827;DHT22;20128;45.582;5.298;2023-07-28T08:48:31;28.10;62.20
33827;DHT22;20128;45.582;5.298;2023-07-28T08:50:57;28.10;62.00
33827;DHT22;20128;45.582;5.298;2023-07-28T08:53:22;28.10;62.20
33827;DHT22;20128;45.582;5.298;2023-07-28T08:55:48;28.10;62.20
33827;DHT22;20128;45.582;5.298;2023-07-28T08:58:22;28.20;62.00
33827;DHT22;20128;45.582;5.298;2023-07-28T09:00:49;28.30;62.20
33827;DHT22;20128;45.582;5.298;2023-07-28T09:03:16;28.30;61.90
33827;DHT22;20128;45.582;5.298;2023-07-28T09:05:45;28.40;61.90
33827;DHT22;20128;45.582;5.298;2023-07-28T09:08:15;28.50;62.00
33827;DHT22;20128;45.582;5.298;2023-07-28T09:13:12;28.50;60.10
33827;DHT22;20128;45.582;5.298;2023-07-28T09:15:38;28.50;60.50
33827;DHT22;20128;45.582;5.298;2023-07-28T09:18:08;28.70;60.20
33827;DHT22;20128;45.582;5.298;2023-07-28T09:20:39;28.70;59.80
33827;DHT22;20128;45.582;5.298;2023-07-28T09:23:07;28.80;59.60
33827;DHT22;20128;45.582;5.298;2023-07-28T09:25:34;28.90;59.60
33827;DHT22;20128;45.582;5.298;2023-07-28T09:28:00;29.00;59.70
33827;DHT22;20128;45.582;5.298;2023-07-28T09:30:27;29.10;59.00
33827;DHT22;20128;45.582;5.298;2023-07-28T09:32:54;29.20;58.50
33827;DHT22;20128;45.582;5.298;2023-07-28T09:35:23;29.20;58.00
33827;DHT22;20128;45.582;5.298;2023-07-28T09:37:50;29.30;57.80
33827;DHT22;20128;45.582;5.298;2023-07-28T09:40:22;29.60;58.10
33827;DHT22;20128;45.582;5.298;2023-07-28T09:42:49;29.70;57.40
33827;DHT22;20128;45.582;5.298;2023-07-28T09:45:17;29.80;57.00
33827;DHT22;20128;45.582;5.298;2023-07-28T09:47:45;29.60;56.60
33827;DHT22;20128;45.582;5.298;2023-07-28T09:50:18;29.40;56.80
33827;DHT22;20128;45.582;5.298;2023-07-28T09:52:46;29.40;56.30
33827;DHT22;20128;45.582;5.298;2023-07-28T09:55:13;29.50;56.00
33827;DHT22;20128;45.582;5.298;2023-07-28T09:57:45;29.70;56.10
33827;DHT22;20128;45.582;5.298;2023-07-28T10:00:13;29.70;55.50
33827;DHT22;20128;45.582;5.298;2023-07-28T10:02:40;29.70;55.40
33827;DHT22;20128;45.582;5.298;2023-07-28T10:05:07;29.80;55.50
33827;DHT22;20128;45.582;5.298;2023-07-28T10:07:39;29.90;54.70
33827;DHT22;20128;45.582;5.298;2023-07-28T10:10:07;29.90;54.40
33827;DHT22;20128;45.582;5.298;2023-07-28T10:12:42;29.90;54.40
33827;DHT22;20128;45.582;5.298;2023-07-28T10:15:12;29.80;54.80
33827;DHT22;20128;45.582;5.298;2023-07-28T10:17:46;29.70;54.70
33827;DHT22;20128;45.582;5.298;2023-07-28T10:20:33;29.80;55.10
33827;DHT22;20128;45.582;5.298;2023-07-28T10:23:08;29.70;55.30
33827;DHT22;20128;45.582;5.298;2023-07-28T10:25:37;29.70;55.10
33827;DHT22;20128;45.582;5.298;2023-07-28T10:28:05;29.80;54.20
33827;DHT22;20128;45.582;5.298;2023-07-28T10:30:51;30.00;53.10
33827;DHT22;20128;45.582;5.298;2023-07-28T10:33:30;30.20;51.90
33827;DHT22;20128;45.582;5.298;2023-07-28T10:35:58;30.30;51.90
33827;DHT22;20128;45.582;5.298;2023-07-28T10:38:32;30.50;51.80
33827;DHT22;20128;45.582;5.298;2023-07-28T10:43:32;30.80;51.60
33827;DHT22;20128;45.582;5.298;2023-07-28T10:45:59;30.70;51.20
33827;DHT22;20128;45.582;5.298;2023-07-28T10:48:25;30.60;50.60
33827;DHT22;20128;45.582;5.298;2023-07-28T10:50:51;30.40;50.80
33827;DHT22;20128;45.582;5.298;2023-07-28T10:53:17;30.40;51.10
33827;DHT22;20128;45.582;5.298;2023-07-28T10:55:44;30.40;50.90
33827;DHT22;20128;45.582;5.298;2023-07-28T10:58:10;30.50;50.20
33827;DHT22;20128;45.582;5.298;2023-07-28T11:00:36;30.60;50.30
33827;DHT22;20128;45.582;5.298;2023-07-28T11:03:01;30.80;49.70
33827;DHT22;20128;45.582;5.298;2023-07-28T11:05:29;30.90;49.50
33827;DHT22;20128;45.582;5.298;2023-07-28T11:08:00;30.80;49.50
33827;DHT22;20128;45.582;5.298;2023-07-28T11:10:29;30.80;49.90
33827;DHT22;20128;45.582;5.298;2023-07-28T11:13:02;30.80;49.90
33827;DHT22;20128;45.582;5.298;2023-07-28T11:15:28;30.70;49.70
33827;DHT22;20128;45.582;5.298;2023-07-28T11:17:54;30.70;49.40
33827;DHT22;20128;45.582;5.298;2023-07-28T11:20:24;30.90;49.40
33827;DHT22;20128;45.582;5.298;2023-07-28T11:25:20;31.30;48.70
33827;DHT22;20128;45.582;5.298;2023-07-28T11:27:50;31.50;47.60
33827;DHT22;20128;45.582;5.298;2023-07-28T11:30:17;31.70;47.40
33827;DHT22;20128;45.582;5.298;2023-07-28T11:32:48;31.80;47.50
33827;DHT22;20128;45.582;5.298;2023-07-28T11:35:18;31.90;47.00
33827;DHT22;20128;45.582;5.298;2023-07-28T11:37:45;32.00;47.50
33827;DHT22;20128;45.582;5.298;2023-07-28T11:40:15;32.10;47.10
33827;DHT22;20128;45.582;5.298;2023-07-28T11:42:44;32.20;46.40
33827;DHT22;20128;45.582;5.298;2023-07-28T11:45:13;32.20;45.70
33827;DHT22;20128;45.582;5.298;2023-07-28T11:47:39;32.20;45.80
33827;DHT22;20128;45.582;5.298;2023-07-28T11:50:04;32.20;44.60
33827;DHT22;20128;45.582;5.298;2023-07-28T11:52:35;32.20;44.50
33827;DHT22;20128;45.582;5.298;2023-07-28T11:55:04;32.30;41.80
33827;DHT22;20128;45.582;5.298;2023-07-28T11:57:31;32.40;42.60
33827;DHT22;20128;45.582;5.298;2023-07-28T11:59:57;32.30;44.20
33827;DHT22;20128;45.582;5.298;2023-07-28T12:02:31;32.30;44.80
33827;DHT22;20128;45.582;5.298;2023-07-28T12:04:58;32.40;45.10
33827;DHT22;20128;45.582;5.298;2023-07-28T12:07:29;32.50;44.60
33827;DHT22;20128;45.582;5.298;2023-07-28T12:09:55;32.50;44.20
33827;DHT22;20128;45.582;5.298;2023-07-28T12:12:28;32.50;43.70
33827;DHT22;20128;45.582;5.298;2023-07-28T12:14:57;32.60;43.50
33827;DHT22;20128;45.582;5.298;2023-07-28T12:17:30;32.70;42.40
33827;DHT22;20128;45.582;5.298;2023-07-28T12:20:04;32.80;41.80
33827;DHT22;20128;45.582;5.298;2023-07-28T12:22:37;32.90;42.50
33827;DHT22;20128;45.582;5.298;2023-07-28T12:25:04;33.00;42.40
33827;DHT22;20128;45.582;5.298;2023-07-28T12:27:30;33.00;41.80
33827;DHT22;20128;45.582;5.298;2023-07-28T12:29:55;33.00;42.30
33827;DHT22;20128;45.582;5.298;2023-07-28T12:32:21;33.10;42.20
33827;DHT22;20128;45.582;5.298;2023-07-28T12:34:48;33.00;41.60
33827;DHT22;20128;45.582;5.298;2023-07-28T12:37:14;33.00;41.90
33827;DHT22;20128;45.582;5.298;2023-07-28T12:39:40;32.90;41.90
33827;DHT22;20128;45.582;5.298;2023-07-28T12:42:08;32.80;42.00
33827;DHT22;20128;45.582;5.298;2023-07-28T12:44:35;32.70;42.20
33827;DHT22;20128;45.582;5.298;2023-07-28T12:47:01;32.60;42.50
33827;DHT22;20128;45.582;5.298;2023-07-28T12:49:27;32.70;42.50
33827;DHT22;20128;45.582;5.298;2023-07-28T12:51:58;32.80;41.60
33827;DHT22;20128;45.582;5.298;2023-07-28T12:54:24;32.80;41.70
33827;DHT22;20128;45.582;5.298;2023-07-28T12:56:51;32.80;41.70
33827;DHT22;20128;45.582;5.298;2023-07-28T12:59:17;32.70;41.80
33827;DHT22;20128;45.582;5.298;2023-07-28T13:01:43;32.60;42.00
33827;DHT22;20128;45.582;5.298;2023-07-28T13:04:09;32.70;42.00
33827;DHT22;20128;45.582;5.298;2023-07-28T13:06:34;32.70;42.60
33827;DHT22;20128;45.582;5.298;2023-07-28T13:09:00;32.80;42.70
33827;DHT22;20128;45.582;5.298;2023-07-28T13:11:25;32.80;42.50
33827;DHT22;20128;45.582;5.298;2023-07-28T13:13:51;32.80;42.50
33827;DHT22;20128;45.582;5.298;2023-07-28T13:16:17;32.80;42.60
33827;DHT22;20128;45.582;5.298;2023-07-28T13:18:43;32.80;42.80
33827;DHT22;20128;45.582;5.298;2023-07-28T13:21:09;32.70;42.40
33827;DHT22;20128;45.582;5.298;2023-07-28T13:23:38;32.80;42.60
33827;DHT22;20128;45.582;5.298;2023-07-28T13:26:04;32.90;42.30
33827;DHT22;20128;45.582;5.298;2023-07-28T13:28:30;32.90;42.10
33827;DHT22;20128;45.582;5.298;2023-07-28T13:30:55;32.90;42.00
33827;DHT22;20128;45.582;5.298;2023-07-28T13:33:21;32.90;42.20
33827;DHT22;20128;45.582;5.298;2023-07-28T13:35:47;33.00;42.50
33827;DHT22;20128;45.582;5.298;2023-07-28T13:38:13;33.10;41.90
33827;DHT22;20128;45.582;5.298;2023-07-28T13:40:38;33.20;41.80
33827;DHT22;20128;45.582;5.298;2023-07-28T13:43:04;33.30;41.90
33827;DHT22;20128;45.582;5.298;2023-07-28T13:45:30;33.40;41.70
33827;DHT22;20128;45.582;5.298;2023-07-28T13:47:55;33.20;41.40
33827;DHT22;20128;45.582;5.298;2023-07-28T13:50:21;33.20;41.50
33827;DHT22;20128;45.582;5.298;2023-07-28T13:52:47;32.90;41.70
33827;DHT22;20128;45.582;5.298;2023-07-28T13:55:13;32.90;42.20
33827;DHT22;20128;45.582;5.298;2023-07-28T13:57:39;32.90;42.40
33827;DHT22;20128;45.582;5.298;2023-07-28T14:00:05;32.90;42.20
33827;DHT22;20128;45.582;5.298;2023-07-28T14:02:38;32.90;43.20
33827;DHT22;20128;45.582;5.298;2023-07-28T14:05:04;32.80;43.20
33827;DHT22;20128;45.582;5.298;2023-07-28T14:07:31;32.80;43.60
33827;DHT22;20128;45.582;5.298;2023-07-28T14:09:56;32.70;43.80
33827;DHT22;20128;45.582;5.298;2023-07-28T14:12:22;32.70;43.70
33827;DHT22;20128;45.582;5.298;2023-07-28T14:14:48;32.70;43.10
33827;DHT22;20128;45.582;5.298;2023-07-28T14:17:15;32.70;43.30
33827;DHT22;20128;45.582;5.298;2023-07-28T14:19:41;32.80;43.40
33827;DHT22;20128;45.582;5.298;2023-07-28T14:22:07;32.80;43.40
33827;DHT22;20128;45.582;5.298;2023-07-28T14:24:33;32.90;43.40
33827;DHT22;20128;45.582;5.298;2023-07-28T14:26:58;32.90;43.10
33827;DHT22;20128;45.582;5.298;2023-07-28T14:29:24;32.90;42.90
33827;DHT22;20128;45.582;5.298;2023-07-28T14:31:49;32.90;43.60
33827;DHT22;20128;45.582;5.298;2023-07-28T14:34:15;32.90;44.00
33827;DHT22;20128;45.582;5.298;2023-07-28T14:36:41;32.90;43.10
33827;DHT22;20128;45.582;5.298;2023-07-28T14:39:07;32.90;44.10
33827;DHT22;20128;45.582;5.298;2023-07-28T14:41:34;33.00;44.20
33827;DHT22;20128;45.582;5.298;2023-07-28T14:44:00;33.10;43.70
33827;DHT22;20128;45.582;5.298;2023-07-28T14:46:26;33.20;43.80
33827;DHT22;20128;45.582;5.298;2023-07-28T14:48:52;33.20;43.50
33827;DHT22;20128;45.582;5.298;2023-07-28T14:51:18;33.20;42.80
33827;DHT22;20128;45.582;5.298;2023-07-28T14:53:43;33.20;43.10
33827;DHT22;20128;45.582;5.298;2023-07-28T14:56:12;33.10;43.30
33827;DHT22;20128;45.582;5.298;2023-07-28T14:58:38;33.10;43.50
33827;DHT22;20128;45.582;5.298;2023-07-28T15:01:05;33.10;43.70
33827;DHT22;20128;45.582;5.298;2023-07-28T15:03:31;33.10;43.70
33827;DHT22;20128;45.582;5.298;2023-07-28T15:05:58;33.20;43.30
33827;DHT22;20128;45.582;5.298;2023-07-28T15:08:24;33.20;43.30
33827;DHT22;20128;45.582;5.298;2023-07-28T15:10:50;33.20;43.10
33827;DHT22;20128;45.582;5.298;2023-07-28T15:13:15;33.40;43.60
33827;DHT22;20128;45.582;5.298;2023-07-28T15:15:41;33.40;43.00
33827;DHT22;20128;45.582;5.298;2023-07-28T15:18:07;33.50;42.40
33827;DHT22;20128;45.582;5.298;2023-07-28T15:20:36;33.50;42.30
33827;DHT22;20128;45.582;5.298;2023-07-28T15:23:02;33.50;42.60
33827;DHT22;20128;45.582;5.298;2023-07-28T15:25:27;33.60;43.30
33827;DHT22;20128;45.582;5.298;2023-07-28T15:27:53;33.70;42.20
33827;DHT22;20128;45.582;5.298;2023-07-28T15:30:19;33.70;42.30
33827;DHT22;20128;45.582;5.298;2023-07-28T15:32:44;33.50;42.20
33827;DHT22;20128;45.582;5.298;2023-07-28T15:35:10;33.50;42.70
33827;DHT22;20128;45.582;5.298;2023-07-28T15:37:36;33.50;42.70
33827;DHT22;20128;45.582;5.298;2023-07-28T15:40:03;33.50;42.30